Atlanta, MI

7:31 AM EST on January 29, 2015 (GMT -0500)
Moon Lake | Change Station
CLOSE
Current Station
Personal Weather Station
Location: Lewiston, MI
Elevation: 1240 ft
Nearby Weather Stations

Elev 1240 ft 44.84 °N, 84.26 °W | Updated 20 minutes ago

Snow
Snow
21.8 °F
Feels Like 22 °F
N
0.0
Wind Variable Wind from SW
Gusts 0.0 mph

Today
High -- | Low -- °F
--% Chance of Precip.
Yesterday
High -- | Low -- °F
Precip. -- in
7:59 AM 5:39 PM
Waxing Gibbous, 74% visible
Pressure 29.74 in
Visibility 0.5 miles
Clouds
Windchill 22 °F
Dew Point 16 °F
Humidity 79%
Rainfall 0.00 in
Snow Depth Not available.
UV Not available.
Pollen .10 out of 12
Air Quality Not available.
Flu Activity Not available.
SPECI KGLR 291225Z AUTO 19006KT 1/2SM SN FZFG VV007 M06/M06 A2974 RMK AO2 P0009 T10611061

More Conditions Fewer Conditions

Pressure 29.74 in
Visibility 0.5 miles
Clouds
Windchill 22 °F
Dew Point 16 °F
Humidity 79%
Rainfall 0.00 in
Snow Depth Not available.
UV Not available.
Pollen .10 out of 12
Air Quality Not available.
Flu Activity Not available.
SPECI KGLR 291225Z AUTO 19006KT 1/2SM SN FZFG VV007 M06/M06 A2974 RMK AO2 P0009 T10611061

More Conditions Fewer Conditions

Nowcast | as of 7:00 am EST on January 29, 2015

Winter Weather Advisory in effect until 1 PM EST this afternoon... At 8 am...snow. Temperature 24. Light winds. At 10 am...snow. Temperature 25. Light winds. At 12 PM...snow. Temperature 26. Light winds. At 2 PM...cloudy. Chance of snow. Temperature 30. Northwest winds 7 mph.

×

10-Day Weather Forecast

Almanac

Astronomy

Jan. 29, 2015 Rise Set
Actual Time
Civil Twilight
Nautical Twilight
Astronomical Twilight
Moon
Length of Visible Light
Length of Day
Tomorrow will be .
, % of the Moon is Illuminated

Today's Extremes

State Highs State Lows

Community

WunderPhotos

Upload Photos

1,791,421 photos uploaded!

WunderBlogs® & News

Nearby

Air Quality

  Air Quality AQ Index Pollutant
Not available.

Snow Depth

Station Depth Elevation

Earthquake Activity

City Distance Mag. Time & Date
Minimum magnitude displayed is 2.5.

Coastal Water Temperatures

Place Temperature

Nearby Weather Stations